Time;durP1;ratioP1;P1;durP2;ratioP2;P2;SDS_P1;SDS_P2;PMS_P1;PMS_P2;Temp;Humidity;BMP_temperature;BMP_pressure;BME280_temperature;BME280_humidity;BME280_pressure;Samples;Min_cycle;Max_cycle;Signal;HPM_P1;HPM_P2
2021/12/10 00:00:29;;;;;;;;;;;;;;;;;;1010647;29;999;-15
2021/12/10 00:01:07;;;;;;;;;;;;;;;;;;1010069;29;1474;-15
2021/12/10 00:01:38;;;;;;;;;;;;;;;;;;1018902;29;995;-15
2021/12/10 00:02:11;;;;;;;;;;;;;;;;;;1018791;29;955;-15
2021/12/10 00:02:46;;;;;;;;;;;;;;;;;;1018309;29;1225;-15
2021/12/10 00:03:19;;;;;;;;;;;;;;;;;;1018877;29;1141;-15
2021/12/10 00:03:51;;;;;;;;;;;;;;;;;;1018389;29;1482;-16
2021/12/10 00:04:29;;;;;;;;;;;;;;;;;;1018808;29;1033;-15
2021/12/10 00:05:00;;;;;;;;;;;;;;;;;;1019090;29;946;-15
2021/12/10 00:05:33;;;;;;;;;;;;;;;;;;1018828;29;1172;-15
2021/12/10 00:06:05;;;;;;;;;;;;;;;;;;1018857;29;1089;-15
2021/12/10 00:06:37;;;;;;;;;;;;;;;;;;1019024;29;1308;-16
2021/12/10 00:07:10;;;;;;;;;;;;;;;;;;1018810;29;1117;-15
2021/12/10 00:07:41;;;;;;;;;;;;;;;;;;1019103;29;1910;-15
2021/12/10 00:08:12;;;;;;;;;;;;;;;;;;1018895;29;856;-15
2021/12/10 00:08:44;;;;;;;;;;;;;;;;;;1014459;29;1142;-15
2021/12/10 00:09:17;;;;;;;;;;;;;;;;;;1006782;29;937;-15
2021/12/10 00:09:49;;;;;;;;;;;;;;;;;;1005408;29;1795;-15
2021/12/10 00:10:29;;;;;;;;;;;;;;;;;;1003840;29;1159;-15
2021/12/10 00:11:01;;;;;;;;;;;;;;;;;;1003969;29;1226;-15
2021/12/10 00:11:33;;;;;;;;;;;;;;;;;;1002419;29;1222;-15
2021/12/10 00:12:09;;;;;;;;;;;;;;;;;;1002783;29;1386;-15
2021/12/10 00:12:43;;;;;;;;;;;;;;;;;;1005870;29;1052;-15
2021/12/10 00:13:21;;;;;;;;;;;;;;;;;;1015951;29;1014;-15
2021/12/10 00:13:51;;;;;;;;;;;;;;;;;;1013921;29;1409;-15
2021/12/10 00:14:29;;;;;;;;;;;;;;;;;;1014269;29;1007;-15
2021/12/10 00:15:02;;;;;;;;;;;;;;;;;;1014242;29;981;-15
2021/12/10 00:15:33;;;;;;;;;;;;;;;;;;1014397;29;1309;-15
2021/12/10 00:16:03;;;;;;;;;;;;;;;;;;1015649;29;1041;-15
2021/12/10 00:16:36;;;;;;;;;;;;;;;;;;1014282;29;1099;-15
2021/12/10 00:17:08;;;;;;;;;;;;;;;;;;1002675;29;1299;-15
2021/12/10 00:17:40;;;;;;;;;;;;;;;;;;998616;29;1797;-15
2021/12/10 00:18:13;;;;;;;;;;;;;;;;;;995424;29;998;-15
2021/12/10 00:18:51;;;;;;;;;;;;;;;;;;1000345;29;975;-15
2021/12/10 00:19:56;;;;;;;;;;;;;;;;;;1008031;29;1129;-15
2021/12/10 00:20:28;;;;;;;;;;;;;;;;;;1010449;29;957;-15
2021/12/10 00:21:00;;;;;;;;;;;;;;;;;;1010534;29;1218;-15
2021/12/10 00:21:31;;;;;;;;;;;;;;;;;;1012098;29;1804;-15
2021/12/10 00:22:07;;;;;;;;;;;;;;;;;;1013996;29;1428;-15
2021/12/10 00:22:42;;;;;;;;;;;;;;;;;;1014482;29;1073;-15
2021/12/10 00:23:18;;;;;;;;;;;;;;;;;;1013738;29;1378;-15
2021/12/10 00:23:50;;;;;;;;;;;;;;;;;;1012253;29;1136;-15
2021/12/10 00:24:24;;;;;;;;;;;;;;;;;;1006542;29;1022;-15
2021/12/10 00:24:55;;;;;;;;;;;;;;;;;;1006290;29;998;-15
2021/12/10 00:25:34;;;;;;;;;;;;;;;;;;1007536;29;974;-15
2021/12/10 00:26:05;;;;;;;;;;;;;;;;;;1014235;29;916;-15
2021/12/10 00:26:35;;;;;;;;;;;;;;;;;;1019011;29;911;-15
2021/12/10 00:27:08;;;;;;;;;;;;;;;;;;1018691;29;1366;-15
2021/12/10 00:27:38;;;;;;;;;;;;;;;;;;1018552;29;1985;-15
2021/12/10 00:28:16;;;;;;;;;;;;;;;;;;1018768;29;1015;-15
2021/12/10 00:28:47;;;;;;;;;;;;;;;;;;1018854;29;975;-15
2021/12/10 00:29:19;;;;;;;;;;;;;;;;;;1018897;29;883;-15
2021/12/10 00:29:50;;;;;;;;;;;;;;;;;;1019132;29;1124;-15
2021/12/10 00:30:54;;;;;;;;;;;;;;;;;;1018905;29;950;-15
2021/12/10 00:31:45;;;;;;;;;;;;;;;;;;1015151;29;1045;-15
2021/12/10 00:32:28;;;;;;;;;;;;;;;;;;1018398;29;1176;-15
2021/12/10 00:33:10;;;;;;;;;;;;;;;;;;1018396;29;1409;-15
2021/12/10 00:33:44;;;;;;;;;;;;;;;;;;1019134;29;835;-15
2021/12/10 00:34:21;;;;;;;;;;;;;;;;;;1013904;29;1340;-15
2021/12/10 00:34:52;;;;;;;;;;;;;;;;;;1014082;29;1006;-15
2021/12/10 00:35:24;;;;;;;;;;;;;;;;;;1013726;29;996;-16
2021/12/10 00:35:55;;;;;;;;;;;;;;;;;;1015246;29;1021;-15
2021/12/10 00:36:26;;;;;;;;;;;;;;;;;;1018394;29;859;-15
2021/12/10 00:36:59;;;;;;;;;;;;;;;;;;1018403;29;1234;-15
2021/12/10 00:37:29;;;;;;;;;;;;;;;;;;1018684;29;1400;-15
2021/12/10 00:38:00;;;;;;;;;;;;;;;;;;1018911;29;1168;-15
2021/12/10 00:38:31;;;;;;;;;;;;;;;;;;1014076;29;1229;-15
2021/12/10 00:39:03;;;;;;;;;;;;;;;;;;1014287;29;1034;-15
2021/12/10 00:39:44;;;;;;;;;;;;;;;;;;1014137;29;1284;-15
2021/12/10 00:40:15;;;;;;;;;;;;;;;;;;1016004;29;1101;-15
2021/12/10 00:40:46;;;;;;;;;;;;;;;;;;1019025;29;1125;-15
2021/12/10 00:41:17;;;;;;;;;;;;;;;;;;1013886;29;1327;-15
2021/12/10 00:41:48;;;;;;;;;;;;;;;;;;1014276;29;1053;-15
2021/12/10 00:42:26;;;;;;;;;;;;;;;;;;1010230;29;1584;-15
2021/12/10 00:42:57;;;;;;;;;;;;;;;;;;999865;29;1013;-15
2021/12/10 00:43:28;;;;;;;;;;;;;;;;;;1002586;29;951;-15
2021/12/10 00:43:59;;;;;;;;;;;;;;;;;;1003466;29;1271;-15
2021/12/10 00:44:29;;;;;;;;;;;;;;;;;;1007021;29;1086;-15
2021/12/10 00:45:00;;;;;;;;;;;;;;;;;;1018940;29;1002;-15
2021/12/10 00:45:31;;;;;;;;;;;;;;;;;;1018754;29;974;-15
2021/12/10 00:46:02;;;;;;;;;;;;;;;;;;1018953;29;944;-15
2021/12/10 00:46:33;;;;;;;;;;;;;;;;;;1018886;29;933;-15
2021/12/10 00:47:04;;;;;;;;;;;;;;;;;;1018998;29;532;-15
2021/12/10 00:47:34;;;;;;;;;;;;;;;;;;1018944;29;1903;-15
2021/12/10 00:48:05;;;;;;;;;;;;;;;;;;1018409;29;1579;-15
2021/12/10 00:48:36;;;;;;;;;;;;;;;;;;1018926;29;1024;-15
2021/12/10 00:49:08;;;;;;;;;;;;;;;;;;1018892;29;1054;-15
2021/12/10 00:49:39;;;;;;;;;;;;;;;;;;1014002;29;978;-16
2021/12/10 00:50:11;;;;;;;;;;;;;;;;;;1014349;29;949;-15
2021/12/10 00:50:46;;;;;;;;;;;;;;;;;;1013928;29;1715;-15
2021/12/10 00:51:17;;;;;;;;;;;;;;;;;;1015161;29;962;-15
2021/12/10 00:51:47;;;;;;;;;;;;;;;;;;1018212;29;1199;-15
2021/12/10 00:52:18;;;;;;;;;;;;;;;;;;1018080;29;954;-15
2021/12/10 00:52:50;;;;;;;;;;;;;;;;;;1018154;29;1140;-15
2021/12/10 00:53:21;;;;;;;;;;;;;;;;;;1013886;29;1461;-15
2021/12/10 00:53:52;;;;;;;;;;;;;;;;;;1014245;29;1120;-15
2021/12/10 00:54:23;;;;;;;;;;;;;;;;;;1006251;29;1326;-15
2021/12/10 00:54:53;;;;;;;;;;;;;;;;;;1006069;29;1193;-15
2021/12/10 00:55:25;;;;;;;;;;;;;;;;;;1006565;29;1228;-15
2021/12/10 00:55:55;;;;;;;;;;;;;;;;;;1006637;29;1692;-15
2021/12/10 00:56:26;;;;;;;;;;;;;;;;;;1018978;29;1144;-15
2021/12/10 00:56:56;;;;;;;;;;;;;;;;;;1018799;29;1042;-15
2021/12/10 00:57:27;;;;;;;;;;;;;;;;;;1018870;29;1151;-15
2021/12/10 00:57:58;;;;;;;;;;;;;;;;;;1013855;29;1347;-15
2021/12/10 00:58:29;;;;;;;;;;;;;;;;;;1013998;29;1219;-15
2021/12/10 00:59:00;;;;;;;;;;;;;;;;;;1014332;29;1069;-15
2021/12/10 00:59:31;;;;;;;;;;;;;;;;;;1013972;29;842;-15
2021/12/10 01:00:04;;;;;;;;;;;;;;;;;;1010369;29;1227;-15
2021/12/10 01:00:37;;;;;;;;;;;;;;;;;;1010297;29;999;-15
2021/12/10 01:01:12;;;;;;;;;;;;;;;;;;1010108;29;1381;-15
2021/12/10 01:01:43;;;;;;;;;;;;;;;;;;1010408;29;1101;-15
2021/12/10 01:02:15;;;;;;;;;;;;;;;;;;1002413;29;1036;-15
2021/12/10 01:02:46;;;;;;;;;;;;;;;;;;1003678;29;1412;-15
2021/12/10 01:03:19;;;;;;;;;;;;;;;;;;998440;29;1281;-15
2021/12/10 01:03:54;;;;;;;;;;;;;;;;;;996364;29;1059;-15
2021/12/10 01:04:29;;;;;;;;;;;;;;;;;;1003863;29;1028;-15
2021/12/10 01:05:00;;;;;;;;;;;;;;;;;;1009196;29;1107;-15
2021/12/10 01:05:31;;;;;;;;;;;;;;;;;;1016849;29;1214;-15
2021/12/10 01:06:04;;;;;;;;;;;;;;;;;;1022871;29;877;-15
2021/12/10 01:06:37;;;;;;;;;;;;;;;;;;1021990;29;1171;-15
2021/12/10 01:07:10;;;;;;;;;;;;;;;;;;1018229;29;1158;-15
2021/12/10 01:07:40;;;;;;;;;;;;;;;;;;1018154;29;1923;-15
2021/12/10 01:08:11;;;;;;;;;;;;;;;;;;1017510;29;1483;-15
2021/12/10 01:08:43;;;;;;;;;;;;;;;;;;1018221;29;1404;-15
2021/12/10 01:09:21;;;;;;;;;;;;;;;;;;1018011;29;1277;-16
2021/12/10 01:09:53;;;;;;;;;;;;;;;;;;1018049;29;1185;-15
2021/12/10 01:10:25;;;;;;;;;;;;;;;;;;1018857;29;1085;-15
2021/12/10 01:11:16;;;;;;;;;;;;;;;;;;1018395;29;1277;-15
2021/12/10 01:11:52;;;;;;;;;;;;;;;;;;1018525;29;1170;-15
2021/12/10 01:12:22;;;;;;;;;;;;;;;;;;1014282;29;973;-15
2021/12/10 01:12:54;;;;;;;;;;;;;;;;;;1014142;29;1053;-15
2021/12/10 01:13:30;;;;;;;;;;;;;;;;;;1014216;29;1365;-16
2021/12/10 01:14:12;;;;;;;;;;;;;;;;;;1011101;29;1233;-15
2021/12/10 01:23:47;;;;;;;;;;;;;;;;;;1013970;29;1099;-15
2021/12/10 01:23:57;;;;;;;;;;;;;;;;;;1015462;29;1108;-15
2021/12/10 01:25:14;;;;;;;;;;;;;;;;;;1017896;29;1290;-15
2021/12/10 01:26:57;;;;;;;;;;;;;;;;;;1018320;29;1114;-15
2021/12/10 01:27:37;;;;;;;;;;;;;;;;;;1018180;29;1978;-15
2021/12/10 01:28:08;;;;;;;;;;;;;;;;;;1018570;29;1049;-15
2021/12/10 01:28:40;;;;;;;;;;;;;;;;;;1014147;29;1005;-15
2021/12/10 01:29:11;;;;;;;;;;;;;;;;;;1013925;29;1453;-15
2021/12/10 01:29:44;;;;;;;;;;;;;;;;;;1014240;29;910;-15
2021/12/10 01:30:19;;;;;;;;;;;;;;;;;;1015000;29;947;-15
2021/12/10 01:30:49;;;;;;;;;;;;;;;;;;1013829;29;1322;-15
2021/12/10 01:31:20;;;;;;;;;;;;;;;;;;1014032;29;1029;-15
2021/12/10 01:31:52;;;;;;;;;;;;;;;;;;1010266;29;1002;-16
2021/12/10 01:32:24;;;;;;;;;;;;;;;;;;1006240;29;1511;-15
2021/12/10 01:32:57;;;;;;;;;;;;;;;;;;1010410;29;1070;-15
2021/12/10 01:33:27;;;;;;;;;;;;;;;;;;1006125;29;1410;-15
2021/12/10 01:33:58;;;;;;;;;;;;;;;;;;1006772;29;992;-15
2021/12/10 01:34:29;;;;;;;;;;;;;;;;;;1010220;29;1085;-15
2021/12/10 01:35:00;;;;;;;;;;;;;;;;;;1009930;29;1224;-15
2021/12/10 01:35:35;;;;;;;;;;;;;;;;;;1018086;29;1071;-15
2021/12/10 01:36:08;;;;;;;;;;;;;;;;;;1018236;29;1037;-15
2021/12/10 01:36:39;;;;;;;;;;;;;;;;;;1014068;29;1039;-15
2021/12/10 01:37:10;;;;;;;;;;;;;;;;;;1010392;29;1004;-15
2021/12/10 01:37:41;;;;;;;;;;;;;;;;;;1009504;29;1415;-16
2021/12/10 01:38:13;;;;;;;;;;;;;;;;;;1002498;29;1267;-15
2021/12/10 01:38:44;;;;;;;;;;;;;;;;;;1002541;29;1399;-15
2021/12/10 01:39:17;;;;;;;;;;;;;;;;;;1002383;29;1039;-15
2021/12/10 01:39:47;;;;;;;;;;;;;;;;;;1003834;29;1124;-15
2021/12/10 01:40:21;;;;;;;;;;;;;;;;;;1009552;29;1361;-15
2021/12/10 01:40:55;;;;;;;;;;;;;;;;;;1010230;29;1006;-15
2021/12/10 01:41:29;;;;;;;;;;;;;;;;;;1010028;29;1293;-15
2021/12/10 01:42:14;;;;;;;;;;;;;;;;;;1007623;29;1293;-15
2021/12/10 01:42:47;;;;;;;;;;;;;;;;;;1012768;29;1185;-15
2021/12/10 01:43:25;;;;;;;;;;;;;;;;;;1014081;29;1102;-15
2021/12/10 01:44:01;;;;;;;;;;;;;;;;;;1018002;29;1172;-15
2021/12/10 01:44:36;;;;;;;;;;;;;;;;;;1018478;29;1164;-16
2021/12/10 01:45:17;;;;;;;;;;;;;;;;;;1014376;29;1093;-15
2021/12/10 01:45:48;;;;;;;;;;;;;;;;;;1014322;29;1200;-15
2021/12/10 01:46:26;;;;;;;;;;;;;;;;;;1014703;29;996;-15
2021/12/10 01:47:01;;;;;;;;;;;;;;;;;;1017431;29;1339;-15
2021/12/10 01:47:34;;;;;;;;;;;;;;;;;;1019361;29;1915;-15
2021/12/10 01:48:07;;;;;;;;;;;;;;;;;;1014981;29;1299;-15
2021/12/10 01:48:43;;;;;;;;;;;;;;;;;;1014683;29;1187;-15
2021/12/10 01:49:13;;;;;;;;;;;;;;;;;;1015005;29;979;-16
2021/12/10 01:49:44;;;;;;;;;;;;;;;;;;1016325;29;1054;-15
2021/12/10 01:50:15;;;;;;;;;;;;;;;;;;1019372;29;1030;-15
2021/12/10 01:50:47;;;;;;;;;;;;;;;;;;1014783;29;991;-15
2021/12/10 01:51:21;;;;;;;;;;;;;;;;;;1007136;29;998;-15
2021/12/10 01:51:51;;;;;;;;;;;;;;;;;;1006971;29;1010;-15
2021/12/10 01:52:22;;;;;;;;;;;;;;;;;;1007908;29;1020;-15
2021/12/10 01:52:54;;;;;;;;;;;;;;;;;;1007923;29;1076;-15
2021/12/10 01:53:27;;;;;;;;;;;;;;;;;;1015183;29;928;-15
2021/12/10 01:54:01;;;;;;;;;;;;;;;;;;1007049;29;935;-15
2021/12/10 01:54:34;;;;;;;;;;;;;;;;;;1008168;29;935;-18
2021/12/10 01:55:05;;;;;;;;;;;;;;;;;;1010835;29;1370;-15
2021/12/10 01:55:39;;;;;;;;;;;;;;;;;;1012874;29;1189;-15
2021/12/10 01:56:14;;;;;;;;;;;;;;;;;;1019521;29;1086;-15
2021/12/10 01:56:46;;;;;;;;;;;;;;;;;;1014670;29;1408;-15
2021/12/10 01:57:19;;;;;;;;;;;;;;;;;;1010940;29;1075;-15
2021/12/10 01:57:50;;;;;;;;;;;;;;;;;;1010747;29;1148;-15
2021/12/10 01:58:22;;;;;;;;;;;;;;;;;;1007160;29;1034;-15
2021/12/10 01:58:53;;;;;;;;;;;;;;;;;;1006994;29;1080;-15
2021/12/10 01:59:25;;;;;;;;;;;;;;;;;;1006561;29;1561;-15
2021/12/10 01:59:56;;;;;;;;;;;;;;;;;;1003810;29;1036;-15
2021/12/10 02:00:30;;;;;;;;;;;;;;;;;;1010429;29;1415;-15
2021/12/10 02:01:06;;;;;;;;;;;;;;;;;;1010910;29;1321;-15
2021/12/10 02:01:41;;;;;;;;;;;;;;;;;;1013686;29;1381;-15
2021/12/10 02:02:14;;;;;;;;;;;;;;;;;;1019429;29;1106;-15
2021/12/10 02:02:46;;;;;;;;;;;;;;;;;;1019554;29;1044;-15
2021/12/10 02:03:16;;;;;;;;;;;;;;;;;;1019194;29;1290;-15
2021/12/10 02:03:47;;;;;;;;;;;;;;;;;;1019440;29;1175;-15
2021/12/10 02:04:19;;;;;;;;;;;;;;;;;;1019551;29;1208;-15
2021/12/10 02:04:51;;;;;;;;;;;;;;;;;;1014620;29;1454;-15
2021/12/10 02:05:21;;;;;;;;;;;;;;;;;;1018559;29;1116;-15
2021/12/10 02:05:52;;;;;;;;;;;;;;;;;;1018171;29;1323;-15
2021/12/10 02:06:22;;;;;;;;;;;;;;;;;;1018758;29;1064;-15
2021/12/10 02:06:54;;;;;;;;;;;;;;;;;;1018544;29;1251;-15
2021/12/10 02:07:25;;;;;;;;;;;;;;;;;;1018776;29;1134;-15
2021/12/10 02:07:58;;;;;;;;;;;;;;;;;;1018630;29;926;-15
2021/12/10 02:08:28;;;;;;;;;;;;;;;;;;1019144;29;948;-15
2021/12/10 02:08:59;;;;;;;;;;;;;;;;;;1019577;29;938;-15
2021/12/10 02:09:29;;;;;;;;;;;;;;;;;;1023503;29;799;-15
2021/12/10 02:09:59;;;;;;;;;;;;;;;;;;1020841;29;1524;-15
2021/12/10 02:10:30;;;;;;;;;;;;;;;;;;1019400;29;997;-15
2021/12/10 02:11:01;;;;;;;;;;;;;;;;;;1018660;29;1133;-15
2021/12/10 02:11:32;;;;;;;;;;;;;;;;;;1018388;29;1181;-15
2021/12/10 02:12:03;;;;;;;;;;;;;;;;;;1018706;29;1080;-15
2021/12/10 02:12:34;;;;;;;;;;;;;;;;;;1010430;29;1327;-16
2021/12/10 02:13:04;;;;;;;;;;;;;;;;;;1006650;29;1155;-15
2021/12/10 02:13:35;;;;;;;;;;;;;;;;;;1007358;29;996;-15
2021/12/10 02:14:05;;;;;;;;;;;;;;;;;;1002909;29;1197;-15
2021/12/10 02:14:36;;;;;;;;;;;;;;;;;;1011375;29;1072;-15
2021/12/10 02:15:07;;;;;;;;;;;;;;;;;;1014848;29;1317;-15
2021/12/10 02:15:37;;;;;;;;;;;;;;;;;;1015242;29;1149;-15
2021/12/10 02:16:08;;;;;;;;;;;;;;;;;;1014774;29;966;-15
2021/12/10 02:16:39;;;;;;;;;;;;;;;;;;1014266;29;1458;-15
2021/12/10 02:17:09;;;;;;;;;;;;;;;;;;1014781;29;1107;-15
2021/12/10 02:17:42;;;;;;;;;;;;;;;;;;1014855;29;1027;-15
2021/12/10 02:18:14;;;;;;;;;;;;;;;;;;1014043;29;1343;-15
2021/12/10 02:18:44;;;;;;;;;;;;;;;;;;1006931;29;1494;-16
2021/12/10 02:19:15;;;;;;;;;;;;;;;;;;1006557;29;1284;-15
2021/12/10 02:19:46;;;;;;;;;;;;;;;;;;1003218;29;1521;-15
2021/12/10 02:20:18;;;;;;;;;;;;;;;;;;1003216;29;1151;-15
2021/12/10 02:21:01;;;;;;;;;;;;;;;;;;1007154;29;1030;-15
2021/12/10 02:21:34;;;;;;;;;;;;;;;;;;1010806;29;1026;-15
2021/12/10 02:22:05;;;;;;;;;;;;;;;;;;1017138;29;847;-15
2021/12/10 02:22:35;;;;;;;;;;;;;;;;;;1019236;29;1455;-15
2021/12/10 02:23:07;;;;;;;;;;;;;;;;;;1014563;29;1018;-15
2021/12/10 02:23:39;;;;;;;;;;;;;;;;;;1010652;29;1530;-15
2021/12/10 02:24:11;;;;;;;;;;;;;;;;;;1010394;29;1126;-15
2021/12/10 02:24:41;;;;;;;;;;;;;;;;;;1010726;29;1172;-15
2021/12/10 02:25:13;;;;;;;;;;;;;;;;;;1010585;29;1364;-15
2021/12/10 02:25:44;;;;;;;;;;;;;;;;;;1010842;29;1071;-15
2021/12/10 02:26:15;;;;;;;;;;;;;;;;;;1010775;29;1204;-15
2021/12/10 02:26:56;;;;;;;;;;;;;;;;;;1014092;29;1116;-15
2021/12/10 02:27:27;;;;;;;;;;;;;;;;;;1013150;29;1895;-15
2021/12/10 02:27:58;;;;;;;;;;;;;;;;;;1006916;29;960;-15
2021/12/10 02:28:29;;;;;;;;;;;;;;;;;;1010864;29;943;-15
2021/12/10 02:29:00;;;;;;;;;;;;;;;;;;1010641;29;993;-15
2021/12/10 02:29:32;;;;;;;;;;;;;;;;;;1007315;29;953;-15
2021/12/10 02:30:05;;;;;;;;;;;;;;;;;;1014317;29;1029;-15
2021/12/10 02:30:35;;;;;;;;;;;;;;;;;;1011511;29;1252;-15
2021/12/10 02:31:07;;;;;;;;;;;;;;;;;;1014712;29;961;-15
2021/12/10 02:31:40;;;;;;;;;;;;;;;;;;1009858;29;1441;-16
2021/12/10 02:32:11;;;;;;;;;;;;;;;;;;1006753;29;1227;-15
2021/12/10 02:32:41;;;;;;;;;;;;;;;;;;998428;29;1251;-15
2021/12/10 02:33:12;;;;;;;;;;;;;;;;;;995499;29;1300;-15
2021/12/10 02:33:43;;;;;;;;;;;;;;;;;;999288;29;1032;-15
2021/12/10 02:34:14;;;;;;;;;;;;;;;;;;999604;29;1016;-15
2021/12/10 02:34:46;;;;;;;;;;;;;;;;;;1006701;29;1104;-15
2021/12/10 02:35:16;;;;;;;;;;;;;;;;;;1007079;29;944;-15
2021/12/10 02:35:48;;;;;;;;;;;;;;;;;;1003618;29;1387;-15
2021/12/10 02:36:18;;;;;;;;;;;;;;;;;;1007242;29;1244;-15
2021/12/10 02:36:50;;;;;;;;;;;;;;;;;;1003025;29;1522;-15
2021/12/10 02:37:21;;;;;;;;;;;;;;;;;;1002708;29;1211;-15
2021/12/10 02:37:51;;;;;;;;;;;;;;;;;;999761;29;1122;-15
2021/12/10 02:38:22;;;;;;;;;;;;;;;;;;1007288;29;1343;-15
2021/12/10 02:38:54;;;;;;;;;;;;;;;;;;1019294;29;1057;-15
2021/12/10 02:39:25;;;;;;;;;;;;;;;;;;1019558;29;920;-15
2021/12/10 02:39:56;;;;;;;;;;;;;;;;;;1014320;29;1205;-15
2021/12/10 02:40:28;;;;;;;;;;;;;;;;;;1003086;29;1022;-15
2021/12/10 02:40:59;;;;;;;;;;;;;;;;;;1002841;29;1213;-15
2021/12/10 02:41:30;;;;;;;;;;;;;;;;;;1003222;29;1028;-15
2021/12/10 02:42:02;;;;;;;;;;;;;;;;;;1010716;29;1166;-15
2021/12/10 02:42:33;;;;;;;;;;;;;;;;;;1014199;29;1386;-15
2021/12/10 02:43:10;;;;;;;;;;;;;;;;;;1015111;29;1357;-15
2021/12/10 02:43:40;;;;;;;;;;;;;;;;;;1013633;29;1090;-15
2021/12/10 02:44:13;;;;;;;;;;;;;;;;;;1006728;29;1247;-15
2021/12/10 02:44:44;;;;;;;;;;;;;;;;;;1006891;29;988;-15
2021/12/10 02:45:16;;;;;;;;;;;;;;;;;;1006499;29;1412;-15
2021/12/10 02:45:48;;;;;;;;;;;;;;;;;;1010620;29;1212;-15
2021/12/10 02:46:19;;;;;;;;;;;;;;;;;;1010144;29;1193;-15
2021/12/10 02:46:50;;;;;;;;;;;;;;;;;;1007501;29;1018;-15
2021/12/10 02:47:22;;;;;;;;;;;;;;;;;;1010848;29;1015;-15
2021/12/10 02:47:53;;;;;;;;;;;;;;;;;;1010292;29;1982;-15
2021/12/10 02:48:24;;;;;;;;;;;;;;;;;;1010883;29;1035;-15
2021/12/10 02:48:55;;;;;;;;;;;;;;;;;;1011159;29;1423;-15
2021/12/10 02:49:26;;;;;;;;;;;;;;;;;;1019055;29;1045;-15
2021/12/10 02:49:56;;;;;;;;;;;;;;;;;;1014766;29;1026;-15
2021/12/10 02:50:29;;;;;;;;;;;;;;;;;;1013664;29;1517;-15
2021/12/10 02:51:01;;;;;;;;;;;;;;;;;;1010887;29;1493;-15
2021/12/10 02:51:32;;;;;;;;;;;;;;;;;;1003203;29;1460;-15
2021/12/10 02:52:04;;;;;;;;;;;;;;;;;;1000955;29;1298;-15
2021/12/10 02:52:35;;;;;;;;;;;;;;;;;;991950;29;1157;-15
2021/12/10 02:53:07;;;;;;;;;;;;;;;;;;992194;29;1094;-15
2021/12/10 02:53:43;;;;;;;;;;;;;;;;;;1004084;29;940;-15
2021/12/10 02:54:21;;;;;;;;;;;;;;;;;;1010779;29;1315;-15
2021/12/10 02:54:52;;;;;;;;;;;;;;;;;;1012525;29;972;-15
2021/12/10 02:55:23;;;;;;;;;;;;;;;;;;1014782;29;1072;-15
2021/12/10 02:55:54;;;;;;;;;;;;;;;;;;1014318;29;1305;-15
2021/12/10 02:56:25;;;;;;;;;;;;;;;;;;1015037;29;1015;-15
2021/12/10 02:56:55;;;;;;;;;;;;;;;;;;1019264;29;1044;-15
2021/12/10 02:57:28;;;;;;;;;;;;;;;;;;1019125;29;1164;-15
2021/12/10 02:58:00;;;;;;;;;;;;;;;;;;1014580;29;1097;-15
2021/12/10 02:58:31;;;;;;;;;;;;;;;;;;1013530;29;1152;-15
2021/12/10 02:59:02;;;;;;;;;;;;;;;;;;1014550;29;1136;-15
2021/12/10 02:59:32;;;;;;;;;;;;;;;;;;1015240;29;1022;-15
2021/12/10 03:00:05;;;;;;;;;;;;;;;;;;1019136;29;1169;-15
2021/12/10 03:00:40;;;;;;;;;;;;;;;;;;1019627;29;963;-15
2021/12/10 03:01:21;;;;;;;;;;;;;;;;;;1009971;29;1780;-15
2021/12/10 03:01:51;;;;;;;;;;;;;;;;;;1002835;29;1003;-15
2021/12/10 03:02:24;;;;;;;;;;;;;;;;;;1006725;29;1003;-15
2021/12/10 03:02:55;;;;;;;;;;;;;;;;;;998735;29;1098;-15
2021/12/10 03:03:26;;;;;;;;;;;;;;;;;;1000457;29;1219;-15
2021/12/10 03:03:56;;;;;;;;;;;;;;;;;;1010631;29;998;-15
2021/12/10 03:04:27;;;;;;;;;;;;;;;;;;1011408;29;1059;-15
2021/12/10 03:04:58;;;;;;;;;;;;;;;;;;1012326;29;1120;-15
2021/12/10 03:05:28;;;;;;;;;;;;;;;;;;1014587;29;925;-15
2021/12/10 03:05:59;;;;;;;;;;;;;;;;;;1014643;29;1036;-15
2021/12/10 03:06:30;;;;;;;;;;;;;;;;;;1014481;29;1305;-15
2021/12/10 03:07:03;;;;;;;;;;;;;;;;;;1023267;29;985;-15
2021/12/10 03:07:34;;;;;;;;;;;;;;;;;;1023285;29;1975;-15
2021/12/10 03:08:04;;;;;;;;;;;;;;;;;;1022646;29;1409;-15
2021/12/10 03:08:36;;;;;;;;;;;;;;;;;;1022655;29;900;-15
2021/12/10 03:09:06;;;;;;;;;;;;;;;;;;1022124;29;1472;-15
2021/12/10 03:09:37;;;;;;;;;;;;;;;;;;1022692;29;1049;-15
2021/12/10 03:10:09;;;;;;;;;;;;;;;;;;1019106;29;1190;-15
2021/12/10 03:10:40;;;;;;;;;;;;;;;;;;1019250;29;981;-15
2021/12/10 03:11:11;;;;;;;;;;;;;;;;;;1019355;29;903;-15
2021/12/10 03:11:46;;;;;;;;;;;;;;;;;;1014562;29;911;-15
2021/12/10 03:12:17;;;;;;;;;;;;;;;;;;1010808;29;1016;-15
2021/12/10 03:12:48;;;;;;;;;;;;;;;;;;1010759;29;958;-15
2021/12/10 03:13:18;;;;;;;;;;;;;;;;;;1010669;29;1022;-15
2021/12/10 03:13:49;;;;;;;;;;;;;;;;;;1011379;29;1069;-15
2021/12/10 03:14:21;;;;;;;;;;;;;;;;;;1014337;29;1352;-16
2021/12/10 03:14:53;;;;;;;;;;;;;;;;;;1019074;29;1195;-15
2021/12/10 03:15:25;;;;;;;;;;;;;;;;;;1019081;29;1069;-15
2021/12/10 03:15:55;;;;;;;;;;;;;;;;;;1019239;29;1055;-15
2021/12/10 03:16:26;;;;;;;;;;;;;;;;;;1019093;29;1109;-15
2021/12/10 03:16:58;;;;;;;;;;;;;;;;;;1014691;29;952;-15
2021/12/10 03:17:29;;;;;;;;;;;;;;;;;;1014578;29;1927;-15
2021/12/10 03:18:00;;;;;;;;;;;;;;;;;;1014609;29;956;-15
2021/12/10 03:18:31;;;;;;;;;;;;;;;;;;1015031;29;1117;-15
2021/12/10 03:19:03;;;;;;;;;;;;;;;;;;1018567;29;846;-15
2021/12/10 03:19:33;;;;;;;;;;;;;;;;;;1018592;29;1106;-15
2021/12/10 03:20:06;;;;;;;;;;;;;;;;;;1018221;29;1342;-15
2021/12/10 03:20:37;;;;;;;;;;;;;;;;;;1014382;29;1168;-15
2021/12/10 03:21:09;;;;;;;;;;;;;;;;;;1014834;29;1037;-15
2021/12/10 03:21:44;;;;;;;;;;;;;;;;;;1010543;29;1018;-15
2021/12/10 03:22:14;;;;;;;;;;;;;;;;;;1005858;29;999;-15
2021/12/10 03:22:46;;;;;;;;;;;;;;;;;;1010281;29;1368;-15
2021/12/10 03:23:16;;;;;;;;;;;;;;;;;;1010042;29;1252;-15
2021/12/10 03:23:47;;;;;;;;;;;;;;;;;;1006626;29;1189;-15
2021/12/10 03:24:22;;;;;;;;;;;;;;;;;;1006807;29;1106;-15
2021/12/10 03:24:53;;;;;;;;;;;;;;;;;;1010604;29;959;-15
2021/12/10 03:25:23;;;;;;;;;;;;;;;;;;1010676;29;1294;-15
2021/12/10 03:25:53;;;;;;;;;;;;;;;;;;1011897;29;951;-15
2021/12/10 03:26:24;;;;;;;;;;;;;;;;;;1019119;29;1327;-15
2021/12/10 03:26:57;;;;;;;;;;;;;;;;;;1019088;29;1156;-15
2021/12/10 03:27:27;;;;;;;;;;;;;;;;;;1019248;29;966;-15
2021/12/10 03:27:58;;;;;;;;;;;;;;;;;;1014020;29;2002;-15
2021/12/10 03:28:29;;;;;;;;;;;;;;;;;;1006529;29;1013;-15
2021/12/10 03:29:00;;;;;;;;;;;;;;;;;;1006541;29;1232;-15
2021/12/10 03:29:31;;;;;;;;;;;;;;;;;;1006669;29;1048;-15
2021/12/10 03:30:02;;;;;;;;;;;;;;;;;;1007398;29;980;-15
2021/12/10 03:30:37;;;;;;;;;;;;;;;;;;1010649;29;955;-15
2021/12/10 03:31:08;;;;;;;;;;;;;;;;;;1002889;29;1032;-15
2021/12/10 03:31:39;;;;;;;;;;;;;;;;;;1003113;29;1106;-15
2021/12/10 03:32:12;;;;;;;;;;;;;;;;;;996352;29;1034;-15
2021/12/10 03:32:43;;;;;;;;;;;;;;;;;;1004018;29;1116;-15
2021/12/10 03:33:13;;;;;;;;;;;;;;;;;;1010831;29;1003;-15
2021/12/10 03:33:45;;;;;;;;;;;;;;;;;;1010606;29;1009;-15
2021/12/10 03:34:16;;;;;;;;;;;;;;;;;;1007080;29;1072;-15
2021/12/10 03:34:47;;;;;;;;;;;;;;;;;;1010390;29;920;-15
2021/12/10 03:35:23;;;;;;;;;;;;;;;;;;1011034;29;907;-15
2021/12/10 03:35:54;;;;;;;;;;;;;;;;;;1015602;29;963;-15
2021/12/10 03:36:25;;;;;;;;;;;;;;;;;;1014276;29;1090;-15
2021/12/10 03:36:56;;;;;;;;;;;;;;;;;;1014871;29;1020;-15
2021/12/10 03:37:27;;;;;;;;;;;;;;;;;;1013981;29;1457;-15
2021/12/10 03:37:59;;;;;;;;;;;;;;;;;;1014959;29;1006;-15
2021/12/10 03:38:29;;;;;;;;;;;;;;;;;;1014336;29;1264;-15
2021/12/10 03:39:00;;;;;;;;;;;;;;;;;;1014346;29;1333;-15
2021/12/10 03:39:30;;;;;;;;;;;;;;;;;;1014566;29;1129;-15
2021/12/10 03:40:02;;;;;;;;;;;;;;;;;;1010286;29;1547;-15
2021/12/10 03:40:33;;;;;;;;;;;;;;;;;;1014741;29;1143;-15
2021/12/10 03:41:04;;;;;;;;;;;;;;;;;;1014500;29;1013;-15
2021/12/10 03:41:34;;;;;;;;;;;;;;;;;;1014595;29;1087;-15
2021/12/10 03:42:06;;;;;;;;;;;;;;;;;;1018785;29;1088;-15
2021/12/10 03:42:37;;;;;;;;;;;;;;;;;;1010268;29;1486;-15
2021/12/10 03:43:08;;;;;;;;;;;;;;;;;;1002789;29;1464;-15
2021/12/10 03:43:40;;;;;;;;;;;;;;;;;;1002858;29;1035;-17
2021/12/10 03:44:10;;;;;;;;;;;;;;;;;;1002568;29;1233;-15
2021/12/10 03:44:41;;;;;;;;;;;;;;;;;;1007012;29;1097;-15
2021/12/10 03:45:12;;;;;;;;;;;;;;;;;;1019103;29;1182;-15
2021/12/10 03:45:45;;;;;;;;;;;;;;;;;;1014277;29;1129;-15
2021/12/10 03:46:15;;;;;;;;;;;;;;;;;;1014613;29;963;-15
2021/12/10 03:46:46;;;;;;;;;;;;;;;;;;1013965;29;1350;-15
2021/12/10 03:47:17;;;;;;;;;;;;;;;;;;1014949;29;1172;-15
2021/12/10 03:47:47;;;;;;;;;;;;;;;;;;1018769;29;1965;-15
2021/12/10 03:48:20;;;;;;;;;;;;;;;;;;1019065;29;1018;-15
2021/12/10 03:48:51;;;;;;;;;;;;;;;;;;1018977;29;1011;-15
2021/12/10 03:49:22;;;;;;;;;;;;;;;;;;1018917;29;1215;-15
2021/12/10 03:49:52;;;;;;;;;;;;;;;;;;1018779;29;1138;-15
2021/12/10 03:50:24;;;;;;;;;;;;;;;;;;1019225;29;1034;-15
2021/12/10 03:50:55;;;;;;;;;;;;;;;;;;1019063;29;961;-15
2021/12/10 03:51:26;;;;;;;;;;;;;;;;;;1019191;29;1006;-15
2021/12/10 03:51:56;;;;;;;;;;;;;;;;;;1018757;29;1520;-15
2021/12/10 03:52:27;;;;;;;;;;;;;;;;;;1018904;29;1044;-15
2021/12/10 03:52:58;;;;;;;;;;;;;;;;;;1010807;29;1007;-15
2021/12/10 03:53:29;;;;;;;;;;;;;;;;;;1009914;29;1426;-15
2021/12/10 03:54:00;;;;;;;;;;;;;;;;;;1010705;29;996;-15
2021/12/10 03:54:30;;;;;;;;;;;;;;;;;;1010530;29;1522;-15
2021/12/10 03:55:02;;;;;;;;;;;;;;;;;;1013957;29;1108;-15
2021/12/10 03:55:34;;;;;;;;;;;;;;;;;;1006737;29;1193;-15
2021/12/10 03:56:06;;;;;;;;;;;;;;;;;;1006973;29;1040;-15
2021/12/10 03:56:37;;;;;;;;;;;;;;;;;;1006659;29;1019;-15